createdAt,value
2023-04-25T00:01:07.834Z,7.75
2023-04-25T00:03:36.557Z,7.81
2023-04-25T00:06:07.586Z,7.76
2023-04-25T00:08:35.924Z,7.78
2023-04-25T00:11:04.208Z,7.73
2023-04-25T00:13:32.603Z,7.78
2023-04-25T00:16:01.342Z,7.74
2023-04-25T00:18:29.968Z,7.86
2023-04-25T00:20:58.534Z,7.87
2023-04-25T00:23:28.251Z,7.90
2023-04-25T00:25:56.515Z,7.91
2023-04-25T00:28:24.776Z,7.82
2023-04-25T00:30:53.032Z,7.79
2023-04-25T00:33:21.315Z,7.74
2023-04-25T00:35:49.780Z,7.72
2023-04-25T00:38:18.034Z,7.69
2023-04-25T00:40:47.676Z,7.74
2023-04-25T00:43:16.322Z,7.79
2023-04-25T00:45:45.676Z,7.77
2023-04-25T00:48:15.922Z,7.78
2023-04-25T00:50:49.468Z,7.76
2023-04-25T00:53:17.850Z,7.84
2023-04-25T00:55:47.560Z,7.86
2023-04-25T00:58:16.225Z,7.77
2023-04-25T01:00:44.650Z,7.77
2023-04-25T01:03:13.665Z,7.81
2023-04-25T01:05:43.343Z,7.74
2023-04-25T01:08:12.176Z,7.77
2023-04-25T01:10:40.487Z,7.75
2023-04-25T01:13:10.366Z,7.71
2023-04-25T01:15:38.851Z,7.82
2023-04-25T01:18:08.482Z,7.85
2023-04-25T01:20:37.032Z,7.81
2023-04-25T01:23:07.732Z,7.74
2023-04-25T01:25:36.593Z,7.75
2023-04-25T01:28:04.922Z,7.81
2023-04-25T01:30:34.223Z,7.74
2023-04-25T01:33:03.718Z,7.69
2023-04-25T01:35:32.474Z,7.70
2023-04-25T01:38:01.397Z,7.64
2023-04-25T01:40:31.554Z,7.64
2023-04-25T01:42:59.826Z,7.62
2023-04-25T01:45:28.332Z,7.60
2023-04-25T01:48:00.358Z,7.54
2023-04-25T01:50:28.798Z,7.54
2023-04-25T01:52:57.895Z,7.60
2023-04-25T01:55:26.242Z,7.64
2023-04-25T01:58:03.512Z,7.52
2023-04-25T02:00:50.228Z,7.46
2023-04-25T02:03:18.709Z,7.48
2023-04-25T02:05:47.149Z,7.45
2023-04-25T02:08:15.944Z,7.43
2023-04-25T02:10:44.128Z,7.52
2023-04-25T02:13:19.184Z,7.40
2023-04-25T02:16:08.324Z,7.42
2023-04-25T02:18:40.225Z,7.30
2023-04-25T02:21:08.844Z,7.41
2023-04-25T02:23:37.929Z,7.27
2023-04-25T02:26:06.521Z,7.22
2023-04-25T02:28:36.214Z,7.13
2023-04-25T02:31:06.921Z,7.05
2023-04-25T02:33:36.349Z,6.93
2023-04-25T02:36:07.555Z,7.10
2023-04-25T02:38:35.911Z,7.08
2023-04-25T02:41:05.883Z,6.99
2023-04-25T02:43:34.149Z,6.97
2023-04-25T02:46:03.749Z,7.07
2023-04-25T02:48:32.082Z,7.20
2023-04-25T02:51:00.328Z,7.19
2023-04-25T02:53:29.283Z,7.17
2023-04-25T02:55:59.450Z,7.30
2023-04-25T02:58:28.043Z,7.15
2023-04-25T03:00:56.406Z,7.19
2023-04-25T03:03:26.329Z,7.13
2023-04-25T03:05:55.077Z,7.26
2023-04-25T03:08:30.592Z,7.23
2023-04-25T03:10:59.427Z,7.17
2023-04-25T03:13:28.492Z,7.25
2023-04-25T03:15:56.820Z,7.10
2023-04-25T03:18:26.653Z,6.98
2023-04-25T03:20:56.621Z,6.98
2023-04-25T03:23:25.661Z,7.05
2023-04-25T03:25:53.927Z,6.96
2023-04-25T03:28:22.301Z,7.02
2023-04-25T03:30:50.523Z,6.84
2023-04-25T03:33:18.839Z,6.75
2023-04-25T03:35:48.427Z,6.55
2023-04-25T03:38:16.763Z,6.50
2023-04-25T03:40:45.099Z,6.49
2023-04-25T03:43:22.978Z,6.44
2023-04-25T03:45:57.096Z,6.48
2023-04-25T03:48:27.641Z,6.49
2023-04-25T03:50:57.483Z,6.42
2023-04-25T03:53:26.322Z,6.43
2023-04-25T03:56:13.097Z,6.46
2023-04-25T03:58:42.160Z,6.55
2023-04-25T04:01:10.714Z,6.49
2023-04-25T04:03:40.876Z,6.49
2023-04-25T04:06:11.848Z,6.43
2023-04-25T04:08:46.004Z,6.45
2023-04-25T04:11:14.633Z,6.39
2023-04-25T04:13:42.879Z,6.50
2023-04-25T04:16:12.375Z,6.57
2023-04-25T04:18:41.408Z,6.50
2023-04-25T04:21:11.058Z,6.52
2023-04-25T04:23:42.351Z,6.59
2023-04-25T04:26:12.430Z,6.63
2023-04-25T04:29:00.333Z,6.63
2023-04-25T04:31:43.067Z,6.61
2023-04-25T04:34:13.787Z,6.71
2023-04-25T04:36:46.108Z,6.64
2023-04-25T04:39:15.172Z,6.69
2023-04-25T04:41:57.474Z,6.68
2023-04-25T04:44:36.459Z,6.69
2023-04-25T04:47:25.116Z,6.82
2023-04-25T04:50:20.132Z,6.75
2023-04-25T04:53:19.235Z,6.57
2023-04-25T04:56:05.620Z,6.69
2023-04-25T04:58:53.512Z,6.65
2023-04-25T05:01:40.746Z,6.67
2023-04-25T05:04:41.525Z,6.63
2023-04-25T05:07:29.226Z,6.42
2023-04-25T05:10:04.915Z,6.34
2023-04-25T05:12:47.102Z,6.46
2023-04-25T05:15:34.487Z,6.55
2023-04-25T05:18:23.584Z,6.57
2023-04-25T05:21:30.672Z,6.56
2023-04-25T05:24:10.159Z,6.52
2023-04-25T05:26:58.454Z,6.67
2023-04-25T05:29:52.759Z,6.86
2023-04-25T05:32:28.346Z,6.93
2023-04-25T05:34:57.418Z,7.14
2023-04-25T05:37:33.760Z,7.10
2023-04-25T05:40:20.817Z,7.03
2023-04-25T05:43:00.570Z,7.02
2023-04-25T05:45:28.879Z,7.08
2023-04-25T05:48:17.349Z,7.00
2023-04-25T05:51:04.626Z,7.02
2023-04-25T05:53:41.513Z,7.12
2023-04-25T05:56:10.410Z,7.14
2023-04-25T05:58:40.006Z,7.27
2023-04-25T06:01:09.966Z,7.16
2023-04-25T06:03:39.187Z,7.26
2023-04-25T06:06:07.954Z,7.45
2023-04-25T06:08:36.508Z,7.53
2023-04-25T06:11:05.824Z,7.62
2023-04-25T06:13:34.284Z,7.57
2023-04-25T06:16:04.284Z,7.78
2023-04-25T06:18:32.921Z,7.74
2023-04-25T06:21:01.516Z,7.79
2023-04-25T06:23:29.849Z,7.98
2023-04-25T06:26:04.389Z,8.12
2023-04-25T06:28:33.862Z,8.13
2023-04-25T06:31:02.182Z,8.20
2023-04-25T06:33:32.276Z,8.09
2023-04-25T06:36:01.330Z,8.07
2023-04-25T06:38:30.636Z,8.11
2023-04-25T06:40:59.523Z,7.90
2023-04-25T06:43:34.133Z,8.00
2023-04-25T06:46:21.160Z,7.86
2023-04-25T06:48:52.770Z,7.99
2023-04-25T06:51:24.169Z,8.12
2023-04-25T06:53:55.370Z,8.04
2023-04-25T06:56:32.511Z,8.11
2023-04-25T06:59:07.152Z,8.23
2023-04-25T07:01:37.995Z,8.00
2023-04-25T07:04:12.935Z,7.82
2023-04-25T07:06:48.521Z,7.71
2023-04-25T07:09:19.490Z,7.69
2023-04-25T07:11:49.633Z,7.47
2023-04-25T07:14:17.951Z,7.43
2023-04-25T07:16:47.071Z,7.86
2023-04-25T07:19:16.808Z,8.12
2023-04-25T07:21:45.613Z,8.21
2023-04-25T07:24:14.053Z,8.53
2023-04-25T07:26:46.872Z,8.32
2023-04-25T07:29:27.913Z,8.56
2023-04-25T07:31:56.264Z,8.92
2023-04-25T07:34:25.879Z,9.04
2023-04-25T07:36:54.783Z,9.21
2023-04-25T07:39:25.201Z,9.68
2023-04-25T07:41:55.348Z,9.86
2023-04-25T07:44:27.662Z,9.63
2023-04-25T07:46:56.204Z,9.53
2023-04-25T07:49:25.880Z,9.06
2023-04-25T07:51:54.126Z,8.61
2023-04-25T07:54:23.036Z,8.30
2023-04-25T07:56:58.747Z,8.31
2023-04-25T07:59:31.889Z,8.32
2023-04-25T08:02:03.507Z,8.27
2023-04-25T08:04:34.241Z,8.15
2023-04-25T08:07:05.965Z,7.85
2023-04-25T08:09:46.710Z,7.64
2023-04-25T08:12:24.190Z,7.76
2023-04-25T08:14:53.276Z,7.60
2023-04-25T08:17:21.933Z,7.72
2023-04-25T08:19:51.742Z,7.52
2023-04-25T08:22:33.016Z,7.28
2023-04-25T08:25:33.555Z,7.13
2023-04-25T08:28:03.926Z,7.01
2023-04-25T08:30:33.135Z,7.33
2023-04-25T08:33:01.614Z,7.76
2023-04-25T08:36:00.701Z,8.06
2023-04-25T08:38:30.384Z,8.29
2023-04-25T08:41:01.916Z,8.22
2023-04-25T08:43:32.026Z,8.41
2023-04-25T08:46:02.178Z,8.45
2023-04-25T08:49:02.449Z,9.03
2023-04-25T08:51:34.702Z,9.42
2023-04-25T08:54:27.969Z,9.70
2023-04-25T08:57:05.286Z,10.10
2023-04-25T08:59:36.115Z,10.16
2023-04-25T09:02:05.626Z,10.84
2023-04-25T09:04:34.176Z,9.86
2023-04-25T09:07:03.838Z,9.47
2023-04-25T09:09:32.346Z,9.09
2023-04-25T09:12:02.683Z,9.24
2023-04-25T09:14:31.164Z,9.35
2023-04-25T09:17:13.856Z,9.35
2023-04-25T09:19:52.066Z,9.23
2023-04-25T09:22:40.234Z,9.32
2023-04-25T09:25:11.726Z,9.50
2023-04-25T09:27:52.581Z,9.75
2023-04-25T09:30:31.972Z,9.60
2023-04-25T09:33:08.863Z,9.50
2023-04-25T09:35:39.577Z,9.61
2023-04-25T09:38:13.592Z,9.52
2023-04-25T09:41:01.741Z,9.06
2023-04-25T09:43:51.740Z,8.18
2023-04-25T09:46:22.279Z,7.84
2023-04-25T09:48:55.240Z,7.65
2023-04-25T09:51:37.372Z,7.56
2023-04-25T09:54:09.042Z,7.67
2023-04-25T09:56:53.248Z,7.81
2023-04-25T09:59:24.224Z,7.96
2023-04-25T10:01:54.393Z,8.13
2023-04-25T10:04:36.557Z,8.43
2023-04-25T10:07:19.891Z,8.93
2023-04-25T10:09:51.880Z,9.21
2023-04-25T10:12:21.009Z,9.26
2023-04-25T10:14:49.799Z,9.48
2023-04-25T10:17:18.734Z,9.45
2023-04-25T10:19:47.160Z,9.54
2023-04-25T10:22:20.752Z,9.68
2023-04-25T10:24:51.987Z,9.67
2023-04-25T10:27:20.506Z,9.84
2023-04-25T10:30:03.395Z,9.66
2023-04-25T10:32:33.599Z,10.15
2023-04-25T10:35:13.369Z,9.88
2023-04-25T10:37:59.455Z,10.13
2023-04-25T10:40:29.297Z,10.30
2023-04-25T10:42:58.016Z,10.34
2023-04-25T10:45:26.234Z,11.10
2023-04-25T10:47:54.601Z,11.97
2023-04-25T10:50:22.853Z,10.73
2023-04-25T10:52:51.079Z,10.21
2023-04-25T10:55:19.325Z,10.38
2023-04-25T10:57:50.945Z,10.22
2023-04-25T11:00:25.636Z,11.76
2023-04-25T11:03:01.987Z,12.06
2023-04-25T11:05:36.498Z,12.25
2023-04-25T11:08:15.056Z,10.82
2023-04-25T11:10:43.864Z,10.12
2023-04-25T11:13:13.519Z,11.20
2023-04-25T11:15:41.849Z,12.31
2023-04-25T11:18:12.706Z,12.30
2023-04-25T11:20:41.235Z,13.24
2023-04-25T11:23:09.476Z,11.70
2023-04-25T11:25:39.174Z,10.64
2023-04-25T11:28:07.616Z,10.40
2023-04-25T11:30:37.262Z,10.97
2023-04-25T11:33:05.676Z,10.41
2023-04-25T11:35:34.730Z,9.85
2023-04-25T11:38:03.632Z,9.84
2023-04-25T11:40:32.994Z,9.97
2023-04-25T11:43:03.007Z,10.48
2023-04-25T11:45:32.162Z,11.58
2023-04-25T11:48:03.822Z,11.10
2023-04-25T11:50:32.101Z,11.09
2023-04-25T11:53:00.372Z,11.33
2023-04-25T11:55:32.369Z,11.64
2023-04-25T11:58:03.312Z,11.94
2023-04-25T12:00:31.704Z,11.10
2023-04-25T12:03:01.676Z,11.52
2023-04-25T12:05:33.796Z,12.93
2023-04-25T12:08:13.931Z,12.02
2023-04-25T12:10:43.059Z,12.11
2023-04-25T12:13:22.331Z,11.88
2023-04-25T12:15:51.003Z,12.29
2023-04-25T12:18:23.310Z,12.71
2023-04-25T12:20:51.698Z,11.19
2023-04-25T12:23:29.447Z,10.79
2023-04-25T12:25:58.899Z,10.58
2023-04-25T12:28:28.689Z,10.39
2023-04-25T12:31:01.928Z,10.35
2023-04-25T12:33:33.454Z,10.13
2023-04-25T12:36:06.574Z,11.49
2023-04-25T12:38:38.304Z,11.81
2023-04-25T12:41:06.974Z,11.82
2023-04-25T12:43:35.316Z,10.93
2023-04-25T12:46:03.867Z,10.19
2023-04-25T12:48:33.871Z,10.35
2023-04-25T12:51:02.582Z,10.21
2023-04-25T12:53:30.838Z,10.35
2023-04-25T12:55:59.168Z,10.41
2023-04-25T12:58:27.363Z,10.77
2023-04-25T13:00:55.783Z,11.48
2023-04-25T13:03:24.393Z,12.34
2023-04-25T13:05:54.134Z,12.29
2023-04-25T13:08:22.407Z,11.96
2023-04-25T13:10:50.646Z,11.83
2023-04-25T13:13:18.937Z,10.50
2023-04-25T13:15:47.233Z,10.96
2023-04-25T13:18:15.708Z,10.64
2023-04-25T13:20:43.958Z,10.98
2023-04-25T13:23:13.671Z,10.96
2023-04-25T13:25:42.120Z,11.27
2023-04-25T13:28:10.390Z,11.37
2023-04-25T13:30:38.728Z,10.86
2023-04-25T13:33:07.745Z,11.11
2023-04-25T13:35:37.741Z,11.76
2023-04-25T13:38:06.573Z,11.70
2023-04-25T13:40:36.353Z,10.71
2023-04-25T13:43:04.830Z,11.02
2023-04-25T13:45:33.720Z,11.68
2023-04-25T13:48:02.722Z,10.66
2023-04-25T13:50:31.286Z,10.14
2023-04-25T13:52:59.558Z,10.04
2023-04-25T13:55:28.238Z,10.35
2023-04-25T13:57:57.863Z,11.63
2023-04-25T14:00:26.266Z,12.51
2023-04-25T14:02:54.744Z,13.12
2023-04-25T14:05:23.010Z,12.61
2023-04-25T14:07:51.433Z,13.01
2023-04-25T14:10:19.703Z,13.35
2023-04-25T14:12:47.970Z,12.58
2023-04-25T14:15:17.751Z,11.91
2023-04-25T14:17:46.875Z,11.44
2023-04-25T14:20:15.342Z,11.59
2023-04-25T14:22:44.744Z,12.69
2023-04-25T14:25:13.071Z,12.13
2023-04-25T14:27:41.344Z,13.29
2023-04-25T14:30:12.851Z,12.84
2023-04-25T14:32:42.991Z,12.45
2023-04-25T14:35:11.438Z,11.94
2023-04-25T14:37:40.319Z,10.85
2023-04-25T14:40:11.523Z,10.89
2023-04-25T14:42:40.054Z,12.84
2023-04-25T14:45:09.956Z,12.88
2023-04-25T14:47:38.900Z,13.09
2023-04-25T14:50:10.305Z,15.23
2023-04-25T14:52:38.708Z,13.93
2023-04-25T14:55:08.392Z,13.95
2023-04-25T14:57:37.095Z,13.15
2023-04-25T15:00:09.548Z,13.76
2023-04-25T15:02:38.328Z,13.99
2023-04-25T15:05:09.596Z,12.93
2023-04-25T15:07:37.957Z,11.02
2023-04-25T15:10:07.251Z,11.03
2023-04-25T15:12:35.541Z,13.41
2023-04-25T15:15:03.978Z,13.34
2023-04-25T15:17:32.813Z,13.75
2023-04-25T15:20:01.427Z,13.71
2023-04-25T15:22:31.294Z,13.04
2023-04-25T15:24:59.583Z,12.36
2023-04-25T15:27:28.669Z,11.62
2023-04-25T15:29:56.954Z,10.81
2023-04-25T15:32:25.417Z,10.87
2023-04-25T15:34:53.767Z,12.36
2023-04-25T15:37:21.993Z,11.44
2023-04-25T15:40:05.104Z,10.94
2023-04-25T15:42:33.481Z,10.64
2023-04-25T15:45:01.704Z,10.14
2023-04-25T15:47:30.247Z,11.08
2023-04-25T15:49:58.566Z,11.29
2023-04-25T15:52:27.662Z,10.83
2023-04-25T15:54:57.263Z,10.36
2023-04-25T15:57:25.970Z,10.29
2023-04-25T15:59:54.223Z,10.00
2023-04-25T16:02:22.574Z,9.92
2023-04-25T16:04:51.607Z,10.52
2023-04-25T16:07:20.333Z,10.08
2023-04-25T16:09:48.604Z,9.96
2023-04-25T16:12:22.991Z,10.22
2023-04-25T16:14:51.535Z,10.14
2023-04-25T16:17:19.806Z,10.07
2023-04-25T16:19:48.104Z,11.67
2023-04-25T16:22:16.685Z,11.63
2023-04-25T16:24:45.291Z,11.57
2023-04-25T16:27:14.008Z,13.31
2023-04-25T16:29:43.871Z,14.63
2023-04-25T16:32:13.445Z,13.54
2023-04-25T16:34:41.718Z,13.62
2023-04-25T16:37:10.586Z,14.62
2023-04-25T16:39:38.965Z,13.86
2023-04-25T16:42:07.328Z,14.04
2023-04-25T16:44:35.999Z,13.61
2023-04-25T16:47:06.157Z,14.04
2023-04-25T16:49:34.764Z,13.26
2023-04-25T16:52:03.581Z,12.57
2023-04-25T16:54:31.832Z,12.71
2023-04-25T16:57:00.069Z,12.82
2023-04-25T16:59:28.451Z,12.97
2023-04-25T17:01:56.739Z,12.93
2023-04-25T17:04:26.906Z,11.00
2023-04-25T17:06:55.392Z,10.83
2023-04-25T17:09:23.670Z,10.75
2023-04-25T17:11:51.974Z,9.88
2023-04-25T17:14:20.320Z,9.42
2023-04-25T17:16:49.676Z,9.23
2023-04-25T17:19:18.145Z,9.08
2023-04-25T17:21:47.871Z,9.01
2023-04-25T17:24:22.219Z,9.02
2023-04-25T17:26:50.709Z,8.96
2023-04-25T17:29:19.189Z,8.81
2023-04-25T17:31:47.857Z,8.89
2023-04-25T17:34:18.487Z,8.91
2023-04-25T17:36:48.631Z,8.93
2023-04-25T17:39:17.595Z,8.87
2023-04-25T17:41:46.264Z,8.92
2023-04-25T17:44:14.846Z,8.94
2023-04-25T17:46:43.138Z,8.88
2023-04-25T17:49:11.812Z,8.93
2023-04-25T17:51:40.036Z,8.74
2023-04-25T17:54:10.432Z,8.59
2023-04-25T17:56:40.788Z,8.55
2023-04-25T17:59:09.793Z,8.49
2023-04-25T18:01:38.120Z,8.45
2023-04-25T18:04:06.828Z,8.46
2023-04-25T18:06:35.068Z,8.41
2023-04-25T18:09:15.871Z,8.23
2023-04-25T18:11:46.469Z,8.17
2023-04-25T18:14:16.889Z,8.16
2023-04-25T18:16:45.944Z,8.14
2023-04-25T18:19:15.964Z,7.99
2023-04-25T18:21:45.397Z,7.89
2023-04-25T18:24:13.884Z,7.79
2023-04-25T18:26:42.190Z,7.77
2023-04-25T18:29:25.517Z,7.70
2023-04-25T18:32:00.554Z,7.61
2023-04-25T18:34:28.949Z,7.61
2023-04-25T18:36:57.973Z,7.60
2023-04-25T18:39:27.887Z,7.44
2023-04-25T18:42:04.084Z,7.42
2023-04-25T18:44:39.558Z,7.39
2023-04-25T18:47:08.414Z,7.32
2023-04-25T18:49:37.486Z,7.32
2023-04-25T18:52:08.647Z,7.24
2023-04-25T18:54:37.046Z,7.27
2023-04-25T18:57:06.238Z,7.25
2023-04-25T18:59:36.203Z,7.24
2023-04-25T19:02:05.588Z,7.20
2023-04-25T19:04:34.520Z,7.26
2023-04-25T19:07:04.215Z,7.26
2023-04-25T19:09:32.594Z,7.24
2023-04-25T19:12:01.846Z,7.16
2023-04-25T19:14:30.231Z,7.23
2023-04-25T19:17:00.470Z,7.11
2023-04-25T19:19:29.005Z,7.02
2023-04-25T19:21:57.479Z,6.97
2023-04-25T19:24:25.898Z,6.93
2023-04-25T19:26:54.260Z,6.93
2023-04-25T19:29:22.735Z,6.74
2023-04-25T19:31:51.495Z,6.67
2023-04-25T19:34:21.151Z,6.70
2023-04-25T19:36:52.695Z,6.66
2023-04-25T19:39:21.122Z,6.55
2023-04-25T19:41:49.531Z,6.54
2023-04-25T19:44:18.112Z,6.53
2023-04-25T19:46:46.999Z,6.55
2023-04-25T19:49:15.623Z,6.55
2023-04-25T19:51:46.356Z,6.46
2023-04-25T19:54:14.586Z,6.37
2023-04-25T19:56:43.458Z,6.37
2023-04-25T19:59:11.856Z,6.27
2023-04-25T20:01:40.175Z,6.34
2023-04-25T20:04:08.526Z,6.38
2023-04-25T20:06:36.826Z,6.22
2023-04-25T20:09:09.412Z,6.04
2023-04-25T20:11:38.011Z,6.05
2023-04-25T20:14:06.496Z,5.90
2023-04-25T20:16:34.891Z,5.80
2023-04-25T20:19:04.327Z,5.65
2023-04-25T20:21:34.176Z,5.63
2023-04-25T20:24:02.671Z,5.53
2023-04-25T20:26:34.013Z,5.55
2023-04-25T20:29:02.972Z,5.53
2023-04-25T20:31:31.973Z,5.45
2023-04-25T20:34:00.972Z,5.28
2023-04-25T20:36:29.726Z,5.32
2023-04-25T20:38:58.058Z,5.21
2023-04-25T20:41:26.321Z,5.22
2023-04-25T20:43:55.969Z,5.12
2023-04-25T20:46:24.883Z,5.04
2023-04-25T20:48:53.690Z,5.01
2023-04-25T20:51:22.946Z,4.93
2023-04-25T20:53:51.372Z,4.90
2023-04-25T20:56:20.692Z,4.82
2023-04-25T20:58:48.938Z,4.84
2023-04-25T21:01:19.036Z,4.76
2023-04-25T21:03:50.151Z,4.76
2023-04-25T21:06:18.649Z,4.93
2023-04-25T21:08:47.334Z,5.04
2023-04-25T21:11:15.944Z,5.12
2023-04-25T21:13:44.147Z,5.03
2023-04-25T21:16:12.473Z,4.79
2023-04-25T21:18:42.081Z,4.66
2023-04-25T21:21:11.279Z,4.56
2023-04-25T21:23:39.512Z,4.76
2023-04-25T21:26:07.752Z,4.67
2023-04-25T21:28:35.972Z,4.49
2023-04-25T21:31:04.551Z,4.36
2023-04-25T21:33:32.919Z,4.26
2023-04-25T21:36:02.522Z,4.21
2023-04-25T21:38:30.815Z,4.27
2023-04-25T21:40:59.158Z,4.21
2023-04-25T21:43:27.379Z,4.19
2023-04-25T21:46:15.291Z,4.16
2023-04-25T21:48:43.866Z,4.15
2023-04-25T21:51:13.521Z,4.09
2023-04-25T21:53:42.314Z,4.09
2023-04-25T21:56:11.358Z,4.02
2023-04-25T21:58:39.535Z,4.00
2023-04-25T22:01:07.820Z,3.99
2023-04-25T22:03:36.407Z,4.15
2023-04-25T22:06:05.002Z,4.27
2023-04-25T22:08:34.778Z,4.01
2023-04-25T22:11:03.278Z,3.95
2023-04-25T22:13:33.410Z,4.09
2023-04-25T22:16:02.086Z,3.89
2023-04-25T22:18:30.565Z,3.85
2023-04-25T22:20:58.799Z,3.77
2023-04-25T22:23:27.082Z,3.73
2023-04-25T22:25:57.095Z,3.69
2023-04-25T22:28:25.327Z,3.65
2023-04-25T22:30:53.624Z,3.62
2023-04-25T22:33:22.049Z,3.58
2023-04-25T22:35:50.371Z,3.55
2023-04-25T22:38:18.638Z,3.53
2023-04-25T22:40:47.976Z,3.52
2023-04-25T22:43:17.818Z,3.47
2023-04-25T22:45:46.064Z,3.43
2023-04-25T22:48:14.449Z,3.43
2023-04-25T22:50:42.705Z,3.63
2023-04-25T22:53:11.653Z,3.65
2023-04-25T22:55:40.094Z,3.70
2023-04-25T22:58:09.677Z,3.52
2023-04-25T23:00:41.421Z,3.52
2023-04-25T23:03:10.978Z,3.65
2023-04-25T23:05:39.356Z,3.47
2023-04-25T23:08:07.561Z,3.42
2023-04-25T23:10:37.033Z,3.32
2023-04-25T23:13:05.446Z,3.30
2023-04-25T23:15:34.860Z,3.27
2023-04-25T23:18:04.675Z,3.29
2023-04-25T23:20:33.739Z,3.21
2023-04-25T23:23:01.955Z,3.14
2023-04-25T23:25:30.165Z,3.18
2023-04-25T23:27:58.489Z,3.19
2023-04-25T23:30:26.930Z,3.16
2023-04-25T23:32:55.200Z,3.15
2023-04-25T23:35:24.891Z,3.06
2023-04-25T23:37:53.323Z,3.15
2023-04-25T23:40:21.701Z,3.08
2023-04-25T23:42:49.940Z,3.18
2023-04-25T23:45:18.183Z,3.32
2023-04-25T23:47:46.750Z,3.00
2023-04-25T23:50:15.055Z,3.04
2023-04-25T23:52:44.661Z,3.19
2023-04-25T23:55:12.911Z,3.17
2023-04-25T23:57:44.270Z,3.06
